createdAt,value
2023-03-16T00:04:05.536Z,11.10
2023-03-16T00:09:31.100Z,12.63
2023-03-16T00:14:54.117Z,13.13
2023-03-16T00:20:17.109Z,11.17
2023-03-16T00:25:38.811Z,12.30
2023-03-16T00:31:05.453Z,13.10
2023-03-16T00:36:27.137Z,14.43
2023-03-16T00:41:48.802Z,14.27
2023-03-16T00:47:14.904Z,11.17
2023-03-16T00:52:36.602Z,14.53
2023-03-16T00:57:58.278Z,14.93
2023-03-16T01:03:20.252Z,10.73
2023-03-16T01:08:42.186Z,12.93
2023-03-16T01:14:04.264Z,11.77
2023-03-16T01:19:26.034Z,13.93
2023-03-16T01:24:47.798Z,21.43
2023-03-16T01:30:12.394Z,10.73
2023-03-16T01:35:34.173Z,12.67
2023-03-16T01:40:56.564Z,12.57
2023-03-16T01:46:25.268Z,13.43
2023-03-16T01:51:56.205Z,12.50
2023-03-16T01:57:23.549Z,11.10
2023-03-16T02:02:51.380Z,14.37
2023-03-16T02:08:13.680Z,15.13
2023-03-16T02:13:36.951Z,15.53
2023-03-16T02:18:58.807Z,13.03
2023-03-16T02:24:21.492Z,14.17
2023-03-16T02:30:04.767Z,13.60
2023-03-16T02:35:26.510Z,13.13
2023-03-16T02:40:58.255Z,16.13
2023-03-16T02:46:23.541Z,12.23
2023-03-16T02:51:46.793Z,12.23
2023-03-16T02:57:08.674Z,13.23
2023-03-16T03:02:30.401Z,12.57
2023-03-16T03:07:52.231Z,12.27
2023-03-16T03:13:14.119Z,15.87
2023-03-16T03:18:36.272Z,15.60
2023-03-16T03:23:58.017Z,15.70
2023-03-16T03:29:19.800Z,17.60
2023-03-16T03:34:43.861Z,15.17
2023-03-16T03:40:06.676Z,15.30
2023-03-16T03:45:28.410Z,14.60
2023-03-16T03:50:50.432Z,13.50
2023-03-16T03:56:12.203Z,15.47
2023-03-16T04:01:34.064Z,12.80
2023-03-16T04:06:55.733Z,12.93
2023-03-16T04:12:17.429Z,13.63
2023-03-16T04:17:39.122Z,12.70
2023-03-16T04:23:00.989Z,15.23
2023-03-16T04:28:22.686Z,15.67
2023-03-16T04:33:44.458Z,17.37
2023-03-16T04:39:06.732Z,14.53
2023-03-16T04:44:28.554Z,17.87
2023-03-16T04:49:50.284Z,14.80
2023-03-16T04:55:12.105Z,14.90
2023-03-16T05:00:34.084Z,15.97
2023-03-16T05:05:55.893Z,14.40
2023-03-16T05:11:17.619Z,16.03
2023-03-16T05:16:39.328Z,15.87
2023-03-16T05:22:01.050Z,15.67
2023-03-16T05:27:22.783Z,16.77
2023-03-16T05:32:45.606Z,15.73
2023-03-16T05:38:08.611Z,16.17
2023-03-16T05:43:30.656Z,18.07
2023-03-16T05:48:52.389Z,17.77
2023-03-16T05:54:14.108Z,20.63
2023-03-16T05:59:36.026Z,18.33
2023-03-16T06:04:59.276Z,16.80
2023-03-16T06:10:20.977Z,18.50
2023-03-16T06:15:44.059Z,17.47
2023-03-16T06:21:05.987Z,21.03
2023-03-16T06:26:27.906Z,18.73
2023-03-16T06:31:51.400Z,18.63
2023-03-16T06:37:13.603Z,20.53
2023-03-16T06:42:35.491Z,23.50
2023-03-16T06:47:57.245Z,21.90
2023-03-16T06:53:19.105Z,21.37
2023-03-16T06:58:41.701Z,20.43
2023-03-16T07:04:03.441Z,20.37
2023-03-16T07:09:25.263Z,22.90
2023-03-16T07:14:50.746Z,22.57
2023-03-16T07:20:13.769Z,22.70
2023-03-16T07:25:35.511Z,20.63
2023-03-16T07:31:03.784Z,25.40
2023-03-16T07:36:26.149Z,21.67
2023-03-16T07:41:48.917Z,22.57
2023-03-16T07:47:13.997Z,22.73
2023-03-16T07:52:37.498Z,21.10
2023-03-16T07:57:59.307Z,20.43
2023-03-16T08:03:21.059Z,23.53
2023-03-16T08:08:43.010Z,21.67
2023-03-16T08:14:05.391Z,19.47
2023-03-16T08:19:27.746Z,22.07
2023-03-16T08:24:50.488Z,19.93
2023-03-16T08:30:13.296Z,19.03
2023-03-16T08:35:35.926Z,18.47
2023-03-16T08:40:58.199Z,16.70
2023-03-16T08:46:21.342Z,10.10
2023-03-16T08:51:44.865Z,9.30
2023-03-16T08:57:06.756Z,13.53
2023-03-16T09:02:28.583Z,11.10
2023-03-16T09:07:51.385Z,12.30
2023-03-16T09:13:13.072Z,11.53
2023-03-16T09:18:36.214Z,9.30
2023-03-16T09:23:57.892Z,9.17
2023-03-16T09:29:19.577Z,9.33
2023-03-16T09:34:41.449Z,8.07
2023-03-16T09:40:11.694Z,7.07
2023-03-16T09:45:52.982Z,7.83
2023-03-16T09:51:34.934Z,9.97
2023-03-16T09:56:57.997Z,7.10
2023-03-16T10:02:36.465Z,7.30
2023-03-16T10:08:15.622Z,5.93
2023-03-16T10:14:02.837Z,7.57
2023-03-16T10:19:43.290Z,6.40
2023-03-16T10:25:20.040Z,9.15
2023-03-16T10:30:43.016Z,6.28
2023-03-16T10:36:19.306Z,6.88
2023-03-16T10:41:47.844Z,7.78
2023-03-16T10:47:31.259Z,8.57
2023-03-16T10:52:56.287Z,8.35
2023-03-16T10:58:33.669Z,8.60
2023-03-16T11:03:57.436Z,5.70
2023-03-16T11:09:23.641Z,7.25
2023-03-16T11:14:46.615Z,6.50
2023-03-16T11:20:26.312Z,5.45
2023-03-16T11:25:53.305Z,4.65
2023-03-16T11:31:32.632Z,6.45
2023-03-16T11:36:57.369Z,5.47
2023-03-16T11:42:35.960Z,4.22
2023-03-16T11:47:57.653Z,6.95
2023-03-16T11:54:06.560Z,3.58
2023-03-16T11:59:34.460Z,4.72
2023-03-16T12:05:08.450Z,5.30
2023-03-16T12:10:56.973Z,2.85
2023-03-16T12:16:39.100Z,7.05
2023-03-16T12:22:19.875Z,4.63
2023-03-16T12:27:44.676Z,4.60
2023-03-16T12:33:09.356Z,5.35
2023-03-16T12:38:47.907Z,3.83
2023-03-16T12:44:22.194Z,7.10
2023-03-16T12:49:44.116Z,4.68
2023-03-16T12:55:17.970Z,6.75
2023-03-16T13:00:42.518Z,5.78
2023-03-16T13:06:04.862Z,5.57
2023-03-16T13:11:27.911Z,4.45
2023-03-16T13:16:50.772Z,7.63
2023-03-16T13:22:32.279Z,4.68
2023-03-16T13:27:58.018Z,7.20
2023-03-16T13:33:28.528Z,5.75
2023-03-16T13:39:23.365Z,4.38
2023-03-16T13:44:45.831Z,4.57
2023-03-16T13:50:11.768Z,4.78
2023-03-16T13:55:36.486Z,5.00
2023-03-16T14:01:01.708Z,3.53
2023-03-16T14:06:30.360Z,5.05
2023-03-16T14:11:52.169Z,4.90
2023-03-16T14:17:17.328Z,3.05
2023-03-16T14:22:39.044Z,3.33
2023-03-16T14:28:06.275Z,4.78
2023-03-16T14:33:30.776Z,7.82
2023-03-16T14:38:54.474Z,4.15
2023-03-16T14:44:21.375Z,4.75
2023-03-16T14:49:43.539Z,3.70
2023-03-16T14:55:19.441Z,3.80
2023-03-16T15:00:52.713Z,3.97
2023-03-16T15:06:15.773Z,3.53
2023-03-16T15:11:38.359Z,5.68
2023-03-16T15:17:00.159Z,5.18
2023-03-16T15:22:34.315Z,7.78
2023-03-16T15:27:56.793Z,5.22
2023-03-16T15:33:18.924Z,5.63
2023-03-16T15:38:44.579Z,6.47
2023-03-16T15:44:12.854Z,5.72
2023-03-16T15:49:45.072Z,4.25
2023-03-16T15:55:16.019Z,3.38
2023-03-16T16:00:39.519Z,2.60
2023-03-16T16:06:01.847Z,3.35
2023-03-16T16:11:28.155Z,3.47
2023-03-16T16:16:50.313Z,3.30
2023-03-16T16:22:12.987Z,3.78
2023-03-16T16:27:34.721Z,2.83
2023-03-16T16:32:58.676Z,1.85
2023-03-16T16:38:21.017Z,4.00
2023-03-16T16:43:49.374Z,2.90
2023-03-16T16:49:19.511Z,4.70
2023-03-16T16:54:41.318Z,4.25
2023-03-16T17:00:05.402Z,3.60
2023-03-16T17:05:29.019Z,3.72
2023-03-16T17:10:52.089Z,5.20
2023-03-16T17:16:16.753Z,5.07
2023-03-16T17:21:38.569Z,3.90
2023-03-16T17:27:00.867Z,3.72
2023-03-16T17:32:22.806Z,2.97
2023-03-16T17:37:47.671Z,3.67
2023-03-16T17:43:17.120Z,4.82
2023-03-16T17:48:38.879Z,5.80
2023-03-16T17:54:00.895Z,5.35
2023-03-16T17:59:23.013Z,3.97
2023-03-16T18:04:44.771Z,2.90
2023-03-16T18:10:06.899Z,4.30
2023-03-16T18:15:32.232Z,4.38
2023-03-16T18:20:56.875Z,6.07
2023-03-16T18:26:19.605Z,4.35
2023-03-16T18:31:42.299Z,4.95
2023-03-16T18:37:06.243Z,8.52
2023-03-16T18:42:28.113Z,4.10
2023-03-16T18:47:53.324Z,6.22
2023-03-16T18:53:17.258Z,3.88
2023-03-16T18:58:39.406Z,4.70
2023-03-16T19:04:02.152Z,4.95
2023-03-16T19:09:26.921Z,4.03
2023-03-16T19:14:48.862Z,6.15
2023-03-16T19:20:14.804Z,5.85
2023-03-16T19:25:39.692Z,5.40
2023-03-16T19:31:03.881Z,5.72
2023-03-16T19:36:30.146Z,4.35
2023-03-16T19:41:58.000Z,3.92
2023-03-16T19:47:27.930Z,6.60
2023-03-16T19:52:50.561Z,8.30
2023-03-16T19:58:20.991Z,6.43
2023-03-16T20:03:43.460Z,5.13
2023-03-16T20:09:05.288Z,7.07
2023-03-16T20:14:32.907Z,8.38
2023-03-16T20:19:56.325Z,4.40
2023-03-16T20:25:18.439Z,5.97
2023-03-16T20:30:40.736Z,7.45
2023-03-16T20:36:02.516Z,9.23
2023-03-16T20:41:27.981Z,10.35
2023-03-16T20:46:49.897Z,8.93
2023-03-16T20:52:19.630Z,7.45
2023-03-16T20:57:43.339Z,5.10
2023-03-16T21:03:18.583Z,7.55
2023-03-16T21:08:40.444Z,8.40
2023-03-16T21:14:03.636Z,8.77
2023-03-16T21:19:25.389Z,10.07
2023-03-16T21:24:47.702Z,8.35
2023-03-16T21:30:31.725Z,16.67
2023-03-16T21:35:53.511Z,7.53
2023-03-16T21:41:16.527Z,8.65
2023-03-16T21:46:38.963Z,8.40
2023-03-16T21:52:02.212Z,7.88
2023-03-16T21:57:24.594Z,6.25
2023-03-16T22:02:48.006Z,6.30
2023-03-16T22:08:22.389Z,5.32
2023-03-16T22:13:46.369Z,6.38
2023-03-16T22:19:13.359Z,6.10
2023-03-16T22:24:37.007Z,8.18
2023-03-16T22:29:58.679Z,10.73
2023-03-16T22:35:26.467Z,6.97
2023-03-16T22:40:48.258Z,7.30
2023-03-16T22:46:19.014Z,10.30
2023-03-16T22:51:41.264Z,10.23
2023-03-16T22:57:04.258Z,6.30
2023-03-16T23:02:28.788Z,7.57
2023-03-16T23:07:51.891Z,8.13
2023-03-16T23:13:16.904Z,8.43
2023-03-16T23:18:38.626Z,9.05
2023-03-16T23:24:04.213Z,8.88
2023-03-16T23:29:26.823Z,7.68
2023-03-16T23:34:48.516Z,13.25
2023-03-16T23:40:12.826Z,8.40
2023-03-16T23:45:41.881Z,10.50
2023-03-16T23:51:04.903Z,8.47
2023-03-16T23:56:27.092Z,6.10
